sensor_id;sensor_type;location;lat;lon;timestamp;pressure;altitude;pressure_sealevel;temperature;humidity
11345;BME280;5727;42.600;23.028;2023-01-31T00:00:54;93199.72;;;0.41;100.00
11345;BME280;5727;42.600;23.028;2023-01-31T00:03:21;93194.63;;;0.36;100.00
11345;BME280;5727;42.600;23.028;2023-01-31T00:06:14;93191.50;;;0.39;100.00
11345;BME280;5727;42.600;23.028;2023-01-31T00:08:43;93188.66;;;0.40;100.00
11345;BME280;5727;42.600;23.028;2023-01-31T00:11:10;93188.88;;;0.44;100.00
11345;BME280;5727;42.600;23.028;2023-01-31T00:13:37;93195.75;;;0.48;100.00
11345;BME280;5727;42.600;23.028;2023-01-31T00:16:06;93186.00;;;0.45;100.00
11345;BME280;5727;42.600;23.028;2023-01-31T00:18:34;93190.19;;;0.41;100.00
11345;BME280;5727;42.600;23.028;2023-01-31T00:21:06;93194.13;;;0.34;100.00
11345;BME280;5727;42.600;23.028;2023-01-31T00:23:34;93198.91;;;0.22;100.00
11345;BME280;5727;42.600;23.028;2023-01-31T00:26:08;93193.72;;;-0.31;100.00
11345;BME280;5727;42.600;23.028;2023-01-31T00:28:35;93197.59;;;-0.62;100.00
11345;BME280;5727;42.600;23.028;2023-01-31T00:31:02;93184.34;;;-0.79;100.00
11345;BME280;5727;42.600;23.028;2023-01-31T00:33:30;93181.94;;;-0.65;100.00
11345;BME280;5727;42.600;23.028;2023-01-31T00:35:57;93188.91;;;-0.71;100.00
11345;BME280;5727;42.600;23.028;2023-01-31T00:38:23;93191.53;;;-0.76;100.00
11345;BME280;5727;42.600;23.028;2023-01-31T00:40:51;93183.69;;;-0.61;100.00
11345;BME280;5727;42.600;23.028;2023-01-31T00:43:18;93183.06;;;-0.48;100.00
11345;BME280;5727;42.600;23.028;2023-01-31T00:45:45;93179.25;;;-0.50;100.00
11345;BME280;5727;42.600;23.028;2023-01-31T00:48:11;93184.16;;;-0.54;100.00
11345;BME280;5727;42.600;23.028;2023-01-31T00:50:40;93183.13;;;-0.53;100.00
11345;BME280;5727;42.600;23.028;2023-01-31T00:53:06;93183.63;;;-0.51;100.00
11345;BME280;5727;42.600;23.028;2023-01-31T00:55:33;93179.03;;;-0.59;100.00
11345;BME280;5727;42.600;23.028;2023-01-31T00:58:00;93177.53;;;-0.65;100.00
11345;BME280;5727;42.600;23.028;2023-01-31T01:00:27;93184.09;;;-0.82;100.00
11345;BME280;5727;42.600;23.028;2023-01-31T01:02:54;93188.75;;;-0.84;100.00
11345;BME280;5727;42.600;23.028;2023-01-31T01:05:20;93196.78;;;-0.96;100.00
11345;BME280;5727;42.600;23.028;2023-01-31T01:07:48;93206.03;;;-0.95;100.00
11345;BME280;5727;42.600;23.028;2023-01-31T01:10:16;93202.94;;;-0.92;100.00
11345;BME280;5727;42.600;23.028;2023-01-31T01:12:42;93218.31;;;-0.82;100.00
11345;BME280;5727;42.600;23.028;2023-01-31T01:15:09;93206.88;;;-0.66;100.00
11345;BME280;5727;42.600;23.028;2023-01-31T01:17:36;93226.34;;;-0.55;100.00
11345;BME280;5727;42.600;23.028;2023-01-31T01:20:04;93218.78;;;-0.41;100.00
11345;BME280;5727;42.600;23.028;2023-01-31T01:22:32;93230.25;;;-0.29;100.00
11345;BME280;5727;42.600;23.028;2023-01-31T01:25:00;93237.47;;;-0.64;100.00
11345;BME280;5727;42.600;23.028;2023-01-31T01:27:27;93219.75;;;-0.71;100.00
11345;BME280;5727;42.600;23.028;2023-01-31T01:29:53;93228.97;;;-0.65;100.00
11345;BME280;5727;42.600;23.028;2023-01-31T01:32:20;93215.03;;;-0.98;100.00
11345;BME280;5727;42.600;23.028;2023-01-31T01:34:47;93205.81;;;-0.99;100.00
11345;BME280;5727;42.600;23.028;2023-01-31T01:37:14;93212.47;;;-0.98;100.00
11345;BME280;5727;42.600;23.028;2023-01-31T01:39:44;93206.38;;;-1.07;100.00
11345;BME280;5727;42.600;23.028;2023-01-31T01:42:15;93207.47;;;-1.18;100.00
11345;BME280;5727;42.600;23.028;2023-01-31T01:44:45;93199.44;;;-1.11;100.00
11345;BME280;5727;42.600;23.028;2023-01-31T01:47:21;93188.03;;;-0.95;100.00
11345;BME280;5727;42.600;23.028;2023-01-31T01:49:51;93194.09;;;-0.76;100.00
11345;BME280;5727;42.600;23.028;2023-01-31T01:52:20;93191.44;;;-0.66;100.00
11345;BME280;5727;42.600;23.028;2023-01-31T01:54:51;93196.03;;;-0.58;100.00
11345;BME280;5727;42.600;23.028;2023-01-31T01:57:24;93203.13;;;-0.45;100.00
11345;BME280;5727;42.600;23.028;2023-01-31T01:59:59;93208.72;;;-0.38;100.00
11345;BME280;5727;42.600;23.028;2023-01-31T02:02:26;93209.63;;;-0.24;100.00
11345;BME280;5727;42.600;23.028;2023-01-31T02:04:53;93215.44;;;-0.13;100.00
11345;BME280;5727;42.600;23.028;2023-01-31T02:07:20;93205.16;;;-0.13;100.00
11345;BME280;5727;42.600;23.028;2023-01-31T02:09:58;93214.09;;;-0.06;100.00
11345;BME280;5727;42.600;23.028;2023-01-31T02:12:29;93213.50;;;0.03;100.00
11345;BME280;5727;42.600;23.028;2023-01-31T02:14:57;93221.81;;;-0.06;100.00
11345;BME280;5727;42.600;23.028;2023-01-31T02:17:24;93219.22;;;-0.01;100.00
11345;BME280;5727;42.600;23.028;2023-01-31T02:19:59;93221.69;;;0.10;100.00
11345;BME280;5727;42.600;23.028;2023-01-31T02:22:32;93220.88;;;0.14;100.00
11345;BME280;5727;42.600;23.028;2023-01-31T02:34:13;93224.94;;;0.20;100.00
11345;BME280;5727;42.600;23.028;2023-01-31T02:36:51;93231.94;;;0.15;100.00
11345;BME280;5727;42.600;23.028;2023-01-31T02:39:27;93231.13;;;0.19;100.00
11345;BME280;5727;42.600;23.028;2023-01-31T02:41:59;93246.31;;;0.21;100.00
11345;BME280;5727;42.600;23.028;2023-01-31T02:44:35;93235.44;;;0.24;100.00
11345;BME280;5727;42.600;23.028;2023-01-31T02:47:29;93223.34;;;0.24;100.00
11345;BME280;5727;42.600;23.028;2023-01-31T02:50:02;93228.72;;;0.28;100.00
11345;BME280;5727;42.600;23.028;2023-01-31T02:52:37;93243.16;;;0.29;100.00
11345;BME280;5727;42.600;23.028;2023-01-31T02:55:09;93239.09;;;0.23;100.00
11345;BME280;5727;42.600;23.028;2023-01-31T02:57:57;93240.59;;;0.24;100.00
11345;BME280;5727;42.600;23.028;2023-01-31T03:00:26;93255.91;;;0.15;100.00
11345;BME280;5727;42.600;23.028;2023-01-31T03:02:54;93267.06;;;0.06;100.00
11345;BME280;5727;42.600;23.028;2023-01-31T03:05:22;93267.00;;;0.11;100.00
11345;BME280;5727;42.600;23.028;2023-01-31T03:07:52;93291.72;;;0.12;100.00
11345;BME280;5727;42.600;23.028;2023-01-31T03:10:32;93287.06;;;0.14;100.00
11345;BME280;5727;42.600;23.028;2023-01-31T03:13:13;93284.66;;;0.22;100.00
11345;BME280;5727;42.600;23.028;2023-01-31T03:15:50;93284.38;;;0.29;100.00
11345;BME280;5727;42.600;23.028;2023-01-31T03:18:43;93280.94;;;0.33;100.00
11345;BME280;5727;42.600;23.028;2023-01-31T03:21:16;93286.81;;;0.39;100.00
11345;BME280;5727;42.600;23.028;2023-01-31T03:23:50;93293.75;;;0.43;100.00
11345;BME280;5727;42.600;23.028;2023-01-31T03:26:18;93285.22;;;0.48;100.00
11345;BME280;5727;42.600;23.028;2023-01-31T03:28:47;93285.16;;;0.53;100.00
11345;BME280;5727;42.600;23.028;2023-01-31T03:31:23;93294.66;;;0.57;100.00
11345;BME280;5727;42.600;23.028;2023-01-31T03:33:52;93286.63;;;0.59;100.00
11345;BME280;5727;42.600;23.028;2023-01-31T03:36:28;93296.88;;;0.64;100.00
11345;BME280;5727;42.600;23.028;2023-01-31T03:39:04;93296.44;;;0.57;100.00
11345;BME280;5727;42.600;23.028;2023-01-31T03:41:42;93297.13;;;0.39;100.00
11345;BME280;5727;42.600;23.028;2023-01-31T03:44:14;93305.84;;;0.19;100.00
11345;BME280;5727;42.600;23.028;2023-01-31T03:46:45;93309.72;;;0.17;100.00
11345;BME280;5727;42.600;23.028;2023-01-31T03:49:17;93309.44;;;0.18;100.00
11345;BME280;5727;42.600;23.028;2023-01-31T03:51:50;93304.59;;;0.12;100.00
11345;BME280;5727;42.600;23.028;2023-01-31T03:54:21;93312.22;;;0.22;100.00
11345;BME280;5727;42.600;23.028;2023-01-31T03:56:54;93302.44;;;0.24;100.00
11345;BME280;5727;42.600;23.028;2023-01-31T03:59:26;93298.78;;;0.30;100.00
11345;BME280;5727;42.600;23.028;2023-01-31T04:01:58;93296.19;;;0.30;100.00
11345;BME280;5727;42.600;23.028;2023-01-31T04:04:30;93305.50;;;0.26;100.00
11345;BME280;5727;42.600;23.028;2023-01-31T04:07:00;93309.72;;;0.17;100.00
11345;BME280;5727;42.600;23.028;2023-01-31T04:09:27;93306.06;;;0.23;100.00
11345;BME280;5727;42.600;23.028;2023-01-31T04:11:58;93308.13;;;0.21;100.00
11345;BME280;5727;42.600;23.028;2023-01-31T04:14:25;93310.72;;;0.21;100.00
11345;BME280;5727;42.600;23.028;2023-01-31T04:16:52;93311.50;;;0.16;100.00
11345;BME280;5727;42.600;23.028;2023-01-31T04:19:19;93317.00;;;0.10;100.00
11345;BME280;5727;42.600;23.028;2023-01-31T04:21:45;93318.47;;;0.16;100.00
11345;BME280;5727;42.600;23.028;2023-01-31T04:24:14;93315.38;;;0.19;100.00
11345;BME280;5727;42.600;23.028;2023-01-31T04:26:40;93328.75;;;0.21;100.00
11345;BME280;5727;42.600;23.028;2023-01-31T04:29:07;93314.28;;;0.25;100.00
11345;BME280;5727;42.600;23.028;2023-01-31T04:31:34;93317.03;;;0.33;100.00
11345;BME280;5727;42.600;23.028;2023-01-31T04:34:00;93326.09;;;0.26;100.00
11345;BME280;5727;42.600;23.028;2023-01-31T04:36:27;93335.84;;;0.34;100.00
11345;BME280;5727;42.600;23.028;2023-01-31T04:38:54;93335.34;;;0.32;100.00
11345;BME280;5727;42.600;23.028;2023-01-31T04:41:22;93334.25;;;0.38;100.00
11345;BME280;5727;42.600;23.028;2023-01-31T04:43:48;93332.41;;;0.43;100.00
11345;BME280;5727;42.600;23.028;2023-01-31T04:46:15;93341.28;;;0.56;100.00
11345;BME280;5727;42.600;23.028;2023-01-31T04:48:42;93345.81;;;0.69;100.00
11345;BME280;5727;42.600;23.028;2023-01-31T04:51:09;93327.28;;;0.67;100.00
11345;BME280;5727;42.600;23.028;2023-01-31T04:53:35;93359.34;;;0.56;100.00
11345;BME280;5727;42.600;23.028;2023-01-31T04:56:03;93348.00;;;0.57;100.00
11345;BME280;5727;42.600;23.028;2023-01-31T04:58:31;93343.50;;;0.44;100.00
11345;BME280;5727;42.600;23.028;2023-01-31T05:00:58;93342.94;;;0.47;100.00
11345;BME280;5727;42.600;23.028;2023-01-31T05:03:24;93347.91;;;0.38;100.00
11345;BME280;5727;42.600;23.028;2023-01-31T05:05:51;93343.69;;;0.47;100.00
11345;BME280;5727;42.600;23.028;2023-01-31T05:08:18;93338.22;;;0.54;100.00
11345;BME280;5727;42.600;23.028;2023-01-31T05:10:45;93343.16;;;0.50;100.00
11345;BME280;5727;42.600;23.028;2023-01-31T05:13:12;93349.16;;;0.41;100.00
11345;BME280;5727;42.600;23.028;2023-01-31T05:15:40;93339.91;;;0.40;100.00
11345;BME280;5727;42.600;23.028;2023-01-31T05:18:07;93343.56;;;0.34;100.00
11345;BME280;5727;42.600;23.028;2023-01-31T05:20:36;93347.16;;;0.33;100.00
11345;BME280;5727;42.600;23.028;2023-01-31T05:23:05;93350.25;;;0.35;100.00
11345;BME280;5727;42.600;23.028;2023-01-31T05:25:33;93357.47;;;0.33;100.00
11345;BME280;5727;42.600;23.028;2023-01-31T05:28:00;93361.03;;;0.42;100.00
11345;BME280;5727;42.600;23.028;2023-01-31T05:30:27;93353.94;;;0.57;100.00
11345;BME280;5727;42.600;23.028;2023-01-31T05:32:55;93347.72;;;0.58;100.00
11345;BME280;5727;42.600;23.028;2023-01-31T05:35:22;93339.81;;;0.50;100.00
11345;BME280;5727;42.600;23.028;2023-01-31T05:37:48;93341.66;;;0.44;100.00
11345;BME280;5727;42.600;23.028;2023-01-31T05:40:16;93350.84;;;0.27;100.00
11345;BME280;5727;42.600;23.028;2023-01-31T05:42:43;93349.56;;;0.24;100.00
11345;BME280;5727;42.600;23.028;2023-01-31T05:45:11;93364.97;;;0.29;100.00
11345;BME280;5727;42.600;23.028;2023-01-31T05:47:38;93368.31;;;0.30;100.00
11345;BME280;5727;42.600;23.028;2023-01-31T05:50:07;93369.91;;;0.26;100.00
11345;BME280;5727;42.600;23.028;2023-01-31T05:52:34;93366.31;;;0.27;100.00
11345;BME280;5727;42.600;23.028;2023-01-31T05:55:00;93367.56;;;0.29;100.00
11345;BME280;5727;42.600;23.028;2023-01-31T05:57:27;93376.56;;;0.32;100.00
11345;BME280;5727;42.600;23.028;2023-01-31T05:59:54;93373.72;;;0.33;100.00
11345;BME280;5727;42.600;23.028;2023-01-31T06:02:20;93363.03;;;0.50;100.00
11345;BME280;5727;42.600;23.028;2023-01-31T06:04:47;93365.91;;;0.72;100.00
11345;BME280;5727;42.600;23.028;2023-01-31T06:07:15;93370.47;;;0.80;100.00
11345;BME280;5727;42.600;23.028;2023-01-31T06:09:42;93376.34;;;0.85;100.00
11345;BME280;5727;42.600;23.028;2023-01-31T06:12:11;93372.81;;;1.00;100.00
11345;BME280;5727;42.600;23.028;2023-01-31T06:14:39;93375.16;;;1.02;100.00
11345;BME280;5727;42.600;23.028;2023-01-31T06:17:06;93371.50;;;1.03;100.00
11345;BME280;5727;42.600;23.028;2023-01-31T06:19:33;93363.09;;;1.16;100.00
11345;BME280;5727;42.600;23.028;2023-01-31T06:22:00;93370.34;;;1.14;100.00
11345;BME280;5727;42.600;23.028;2023-01-31T06:24:28;93371.06;;;0.96;100.00
11345;BME280;5727;42.600;23.028;2023-01-31T06:26:55;93375.56;;;0.85;100.00
11345;BME280;5727;42.600;23.028;2023-01-31T06:29:22;93385.88;;;0.85;100.00
11345;BME280;5727;42.600;23.028;2023-01-31T06:31:48;93375.41;;;0.76;100.00
11345;BME280;5727;42.600;23.028;2023-01-31T06:34:15;93390.59;;;0.78;100.00
11345;BME280;5727;42.600;23.028;2023-01-31T06:36:42;93385.25;;;0.69;100.00
11345;BME280;5727;42.600;23.028;2023-01-31T06:39:09;93384.44;;;0.74;100.00
11345;BME280;5727;42.600;23.028;2023-01-31T06:41:37;93383.63;;;0.78;100.00
11345;BME280;5727;42.600;23.028;2023-01-31T06:44:05;93396.16;;;0.90;100.00
11345;BME280;5727;42.600;23.028;2023-01-31T06:46:32;93386.28;;;0.97;100.00
11345;BME280;5727;42.600;23.028;2023-01-31T06:49:00;93388.78;;;1.02;100.00
11345;BME280;5727;42.600;23.028;2023-01-31T06:51:26;93395.59;;;0.93;100.00
11345;BME280;5727;42.600;23.028;2023-01-31T06:53:53;93393.28;;;0.91;100.00
11345;BME280;5727;42.600;23.028;2023-01-31T06:56:20;93384.00;;;0.90;100.00
11345;BME280;5727;42.600;23.028;2023-01-31T06:58:49;93388.69;;;1.12;100.00
11345;BME280;5727;42.600;23.028;2023-01-31T07:01:16;93386.44;;;1.29;100.00
11345;BME280;5727;42.600;23.028;2023-01-31T07:03:42;93393.16;;;1.30;100.00
11345;BME280;5727;42.600;23.028;2023-01-31T07:06:09;93399.44;;;1.19;100.00
11345;BME280;5727;42.600;23.028;2023-01-31T07:08:36;93394.28;;;1.19;100.00
11345;BME280;5727;42.600;23.028;2023-01-31T07:11:03;93395.63;;;1.17;100.00
11345;BME280;5727;42.600;23.028;2023-01-31T07:13:31;93402.59;;;1.16;100.00
11345;BME280;5727;42.600;23.028;2023-01-31T07:15:59;93395.84;;;1.20;100.00
11345;BME280;5727;42.600;23.028;2023-01-31T07:18:25;93393.81;;;1.17;100.00
11345;BME280;5727;42.600;23.028;2023-01-31T07:20:52;93390.66;;;1.20;100.00
11345;BME280;5727;42.600;23.028;2023-01-31T07:23:19;93393.25;;;1.20;100.00
11345;BME280;5727;42.600;23.028;2023-01-31T07:25:45;93390.06;;;1.28;100.00
11345;BME280;5727;42.600;23.028;2023-01-31T07:28:12;93393.16;;;1.30;100.00
11345;BME280;5727;42.600;23.028;2023-01-31T07:30:39;93404.59;;;1.19;100.00
11345;BME280;5727;42.600;23.028;2023-01-31T07:33:09;93398.63;;;1.24;100.00
11345;BME280;5727;42.600;23.028;2023-01-31T07:35:36;93402.88;;;1.38;100.00
11345;BME280;5727;42.600;23.028;2023-01-31T07:38:02;93407.56;;;1.31;100.00
11345;BME280;5727;42.600;23.028;2023-01-31T07:40:29;93415.09;;;1.28;100.00
11345;BME280;5727;42.600;23.028;2023-01-31T07:42:57;93413.13;;;1.43;100.00
11345;BME280;5727;42.600;23.028;2023-01-31T07:45:25;93411.19;;;1.54;100.00
11345;BME280;5727;42.600;23.028;2023-01-31T07:47:52;93414.84;;;1.71;100.00
11345;BME280;5727;42.600;23.028;2023-01-31T07:50:20;93413.03;;;1.91;100.00
11345;BME280;5727;42.600;23.028;2023-01-31T07:52:47;93420.13;;;2.04;100.00
11345;BME280;5727;42.600;23.028;2023-01-31T07:55:15;93419.06;;;2.05;100.00
11345;BME280;5727;42.600;23.028;2023-01-31T07:57:43;93415.91;;;2.08;100.00
11345;BME280;5727;42.600;23.028;2023-01-31T08:00:10;93430.16;;;2.24;100.00
11345;BME280;5727;42.600;23.028;2023-01-31T08:03:00;93430.16;;;2.24;100.00
11345;BME280;5727;42.600;23.028;2023-01-31T08:05:46;93429.31;;;2.28;100.00
11345;BME280;5727;42.600;23.028;2023-01-31T08:08:13;93418.63;;;2.35;100.00
11345;BME280;5727;42.600;23.028;2023-01-31T08:10:40;93433.63;;;2.33;100.00
11345;BME280;5727;42.600;23.028;2023-01-31T08:13:07;93438.59;;;2.29;100.00
11345;BME280;5727;42.600;23.028;2023-01-31T08:15:36;93423.97;;;2.25;100.00
11345;BME280;5727;42.600;23.028;2023-01-31T08:18:02;93433.50;;;2.06;100.00
11345;BME280;5727;42.600;23.028;2023-01-31T08:20:29;93431.97;;;2.05;100.00
11345;BME280;5727;42.600;23.028;2023-01-31T08:22:57;93423.66;;;2.08;100.00
11345;BME280;5727;42.600;23.028;2023-01-31T08:25:27;93433.84;;;2.18;100.00
11345;BME280;5727;42.600;23.028;2023-01-31T08:27:55;93436.22;;;2.14;100.00
11345;BME280;5727;42.600;23.028;2023-01-31T08:30:22;93434.44;;;2.15;100.00
11345;BME280;5727;42.600;23.028;2023-01-31T08:32:49;93438.13;;;2.09;100.00
11345;BME280;5727;42.600;23.028;2023-01-31T08:35:16;93434.91;;;1.98;100.00
11345;BME280;5727;42.600;23.028;2023-01-31T08:37:43;93444.66;;;1.82;100.00
11345;BME280;5727;42.600;23.028;2023-01-31T08:40:11;93445.94;;;1.61;100.00
11345;BME280;5727;42.600;23.028;2023-01-31T08:42:38;93450.84;;;1.63;100.00
11345;BME280;5727;42.600;23.028;2023-01-31T08:45:06;93443.44;;;1.56;100.00
11345;BME280;5727;42.600;23.028;2023-01-31T08:47:33;93442.22;;;1.72;100.00
11345;BME280;5727;42.600;23.028;2023-01-31T08:50:01;93447.97;;;1.64;100.00
11345;BME280;5727;42.600;23.028;2023-01-31T08:52:27;93450.06;;;1.62;100.00
11345;BME280;5727;42.600;23.028;2023-01-31T08:54:59;93447.69;;;1.66;100.00
11345;BME280;5727;42.600;23.028;2023-01-31T08:57:27;93448.56;;;1.80;100.00
11345;BME280;5727;42.600;23.028;2023-01-31T08:59:54;93457.03;;;1.85;100.00
11345;BME280;5727;42.600;23.028;2023-01-31T09:02:21;93450.25;;;1.90;100.00
11345;BME280;5727;42.600;23.028;2023-01-31T09:04:47;93438.75;;;2.01;100.00
11345;BME280;5727;42.600;23.028;2023-01-31T09:07:14;93431.56;;;1.98;100.00
11345;BME280;5727;42.600;23.028;2023-01-31T09:09:46;93433.28;;;2.02;100.00
11345;BME280;5727;42.600;23.028;2023-01-31T09:12:12;93435.34;;;2.05;100.00
11345;BME280;5727;42.600;23.028;2023-01-31T09:14:40;93424.84;;;2.15;100.00
11345;BME280;5727;42.600;23.028;2023-01-31T09:17:07;93433.09;;;2.17;100.00
11345;BME280;5727;42.600;23.028;2023-01-31T09:19:35;93431.22;;;2.23;100.00
11345;BME280;5727;42.600;23.028;2023-01-31T09:22:02;93432.81;;;2.19;100.00
11345;BME280;5727;42.600;23.028;2023-01-31T09:24:28;93427.97;;;2.31;100.00
11345;BME280;5727;42.600;23.028;2023-01-31T09:26:55;93434.19;;;2.48;100.00
11345;BME280;5727;42.600;23.028;2023-01-31T09:29:22;93430.97;;;2.56;100.00
11345;BME280;5727;42.600;23.028;2023-01-31T09:31:50;93429.19;;;2.70;100.00
11345;BME280;5727;42.600;23.028;2023-01-31T09:34:17;93423.00;;;2.53;100.00
11345;BME280;5727;42.600;23.028;2023-01-31T09:36:44;93424.53;;;2.54;100.00
11345;BME280;5727;42.600;23.028;2023-01-31T09:39:11;93420.22;;;2.49;100.00
11345;BME280;5727;42.600;23.028;2023-01-31T09:41:42;93420.97;;;2.50;100.00
11345;BME280;5727;42.600;23.028;2023-01-31T09:44:13;93409.94;;;2.63;100.00
11345;BME280;5727;42.600;23.028;2023-01-31T09:46:43;93393.84;;;2.66;100.00
11345;BME280;5727;42.600;23.028;2023-01-31T09:49:17;93415.66;;;2.60;100.00
11345;BME280;5727;42.600;23.028;2023-01-31T09:51:48;93404.09;;;2.71;100.00
11345;BME280;5727;42.600;23.028;2023-01-31T09:54:20;93414.53;;;2.66;100.00
11345;BME280;5727;42.600;23.028;2023-01-31T09:56:57;93407.63;;;2.75;100.00
11345;BME280;5727;42.600;23.028;2023-01-31T09:59:29;93401.06;;;2.50;100.00
11345;BME280;5727;42.600;23.028;2023-01-31T10:02:10;93397.38;;;2.38;100.00
11345;BME280;5727;42.600;23.028;2023-01-31T10:04:56;93391.72;;;2.17;100.00
11345;BME280;5727;42.600;23.028;2023-01-31T10:07:31;93396.09;;;2.03;100.00
11345;BME280;5727;42.600;23.028;2023-01-31T10:10:02;93386.09;;;1.97;100.00
11345;BME280;5727;42.600;23.028;2023-01-31T10:12:40;93389.16;;;1.99;100.00
11345;BME280;5727;42.600;23.028;2023-01-31T10:15:12;93389.88;;;2.04;100.00
11345;BME280;5727;42.600;23.028;2023-01-31T10:17:45;93388.94;;;2.14;100.00
11345;BME280;5727;42.600;23.028;2023-01-31T10:20:20;93404.88;;;2.02;100.00
11345;BME280;5727;42.600;23.028;2023-01-31T10:22:54;93387.16;;;1.96;100.00
11345;BME280;5727;42.600;23.028;2023-01-31T10:25:25;93371.91;;;2.13;100.00
11345;BME280;5727;42.600;23.028;2023-01-31T10:27:55;93376.22;;;2.17;100.00
11345;BME280;5727;42.600;23.028;2023-01-31T10:30:29;93361.31;;;2.46;100.00
11345;BME280;5727;42.600;23.028;2023-01-31T10:33:11;93363.28;;;2.68;100.00
11345;BME280;5727;42.600;23.028;2023-01-31T10:35:45;93358.31;;;2.85;100.00
11345;BME280;5727;42.600;23.028;2023-01-31T10:38:17;93356.72;;;2.89;100.00
11345;BME280;5727;42.600;23.028;2023-01-31T10:40:49;93347.44;;;2.56;100.00
11345;BME280;5727;42.600;23.028;2023-01-31T10:43:21;93349.97;;;2.61;100.00
11345;BME280;5727;42.600;23.028;2023-01-31T10:46:01;93354.47;;;2.83;100.00
11345;BME280;5727;42.600;23.028;2023-01-31T10:48:34;93361.47;;;2.68;100.00
11345;BME280;5727;42.600;23.028;2023-01-31T10:51:09;93361.34;;;2.60;100.00
11345;BME280;5727;42.600;23.028;2023-01-31T10:54:04;93348.38;;;2.46;100.00
11345;BME280;5727;42.600;23.028;2023-01-31T10:56:33;93349.16;;;2.47;100.00
11345;BME280;5727;42.600;23.028;2023-01-31T10:59:04;93358.31;;;2.39;100.00
11345;BME280;5727;42.600;23.028;2023-01-31T11:01:33;93367.09;;;2.25;100.00
11345;BME280;5727;42.600;23.028;2023-01-31T11:04:13;93363.06;;;2.19;100.00
11345;BME280;5727;42.600;23.028;2023-01-31T11:06:46;93350.28;;;2.41;100.00
11345;BME280;5727;42.600;23.028;2023-01-31T11:09:13;93350.56;;;2.39;100.00
11345;BME280;5727;42.600;23.028;2023-01-31T11:11:52;93360.44;;;2.37;100.00
11345;BME280;5727;42.600;23.028;2023-01-31T11:14:20;93355.00;;;2.20;100.00
11345;BME280;5727;42.600;23.028;2023-01-31T11:16:47;93343.13;;;2.19;100.00
11345;BME280;5727;42.600;23.028;2023-01-31T11:19:17;93359.34;;;2.25;100.00
11345;BME280;5727;42.600;23.028;2023-01-31T11:21:50;93357.69;;;2.29;100.00
11345;BME280;5727;42.600;23.028;2023-01-31T11:24:21;93364.50;;;2.25;100.00
11345;BME280;5727;42.600;23.028;2023-01-31T11:26:51;93366.53;;;2.28;100.00
11345;BME280;5727;42.600;23.028;2023-01-31T11:29:22;93368.63;;;2.26;100.00
11345;BME280;5727;42.600;23.028;2023-01-31T11:31:51;93375.28;;;2.13;100.00
11345;BME280;5727;42.600;23.028;2023-01-31T11:34:20;93367.31;;;1.91;100.00
11345;BME280;5727;42.600;23.028;2023-01-31T11:36:49;93375.84;;;1.92;100.00
11345;BME280;5727;42.600;23.028;2023-01-31T11:39:28;93380.66;;;1.98;100.00
11345;BME280;5727;42.600;23.028;2023-01-31T11:41:55;93370.53;;;1.83;100.00
11345;BME280;5727;42.600;23.028;2023-01-31T11:44:22;93358.38;;;1.83;100.00
11345;BME280;5727;42.600;23.028;2023-01-31T11:46:52;93363.06;;;1.81;100.00
11345;BME280;5727;42.600;23.028;2023-01-31T11:49:38;93359.38;;;1.88;100.00
11345;BME280;5727;42.600;23.028;2023-01-31T11:52:13;93354.56;;;2.00;100.00
11345;BME280;5727;42.600;23.028;2023-01-31T11:54:44;93362.13;;;2.10;100.00
11345;BME280;5727;42.600;23.028;2023-01-31T11:57:13;93356.13;;;2.14;100.00
11345;BME280;5727;42.600;23.028;2023-01-31T11:59:41;93357.81;;;2.05;100.00
11345;BME280;5727;42.600;23.028;2023-01-31T12:02:23;93349.78;;;2.07;100.00
11345;BME280;5727;42.600;23.028;2023-01-31T12:04:52;93349.09;;;2.01;100.00
11345;BME280;5727;42.600;23.028;2023-01-31T12:07:23;93365.44;;;1.97;100.00
11345;BME280;5727;42.600;23.028;2023-01-31T12:09:50;93370.53;;;1.83;100.00
11345;BME280;5727;42.600;23.028;2023-01-31T12:12:23;93372.41;;;1.77;100.00
11345;BME280;5727;42.600;23.028;2023-01-31T12:14:55;93365.16;;;1.79;100.00
11345;BME280;5727;42.600;23.028;2023-01-31T12:17:27;93360.06;;;1.93;100.00
11345;BME280;5727;42.600;23.028;2023-01-31T12:20:10;93368.78;;;1.97;100.00
11345;BME280;5727;42.600;23.028;2023-01-31T12:22:46;93366.59;;;2.04;100.00
11345;BME280;5727;42.600;23.028;2023-01-31T12:25:23;93369.75;;;2.20;100.00
11345;BME280;5727;42.600;23.028;2023-01-31T12:28:02;93377.16;;;2.08;100.00
11345;BME280;5727;42.600;23.028;2023-01-31T12:30:50;93366.47;;;2.14;100.00
11345;BME280;5727;42.600;23.028;2023-01-31T12:33:33;93370.31;;;2.17;100.00
11345;BME280;5727;42.600;23.028;2023-01-31T12:36:12;93369.19;;;2.23;100.00
11345;BME280;5727;42.600;23.028;2023-01-31T12:39:02;93360.78;;;2.31;100.00
11345;BME280;5727;42.600;23.028;2023-01-31T12:41:45;93358.56;;;2.24;100.00
11345;BME280;5727;42.600;23.028;2023-01-31T12:44:34;93358.50;;;2.11;100.00
11345;BME280;5727;42.600;23.028;2023-01-31T12:47:25;93360.22;;;2.34;100.00
11345;BME280;5727;42.600;23.028;2023-01-31T12:50:04;93357.81;;;2.69;100.00
11345;BME280;5727;42.600;23.028;2023-01-31T12:52:44;93380.81;;;2.57;100.00
11345;BME280;5727;42.600;23.028;2023-01-31T12:55:20;93355.09;;;2.47;100.00
11345;BME280;5727;42.600;23.028;2023-01-31T12:57:58;93359.09;;;2.86;100.00
11345;BME280;5727;42.600;23.028;2023-01-31T13:00:37;93370.78;;;2.97;100.00
11345;BME280;5727;42.600;23.028;2023-01-31T13:03:21;93352.19;;;2.81;100.00
11345;BME280;5727;42.600;23.028;2023-01-31T13:05:53;93348.09;;;3.07;100.00
11345;BME280;5727;42.600;23.028;2023-01-31T13:08:24;93339.25;;;3.49;100.00
11345;BME280;5727;42.600;23.028;2023-01-31T13:10:57;93346.34;;;3.57;100.00
11345;BME280;5727;42.600;23.028;2023-01-31T13:13:27;93362.06;;;3.60;100.00
11345;BME280;5727;42.600;23.028;2023-01-31T13:15:58;93355.81;;;4.11;99.86
11345;BME280;5727;42.600;23.028;2023-01-31T13:18:28;93354.41;;;4.49;95.54
11345;BME280;5727;42.600;23.028;2023-01-31T13:20:58;93360.69;;;4.34;94.72
11345;BME280;5727;42.600;23.028;2023-01-31T13:23:31;93368.06;;;4.41;91.95
11345;BME280;5727;42.600;23.028;2023-01-31T13:26:06;93357.25;;;3.67;96.26